createdAt,value
2022-12-04T00:01:47.706Z,101627.81
2022-12-04T00:04:50.463Z,101619.66
2022-12-04T00:07:53.031Z,101615.06
2022-12-04T00:10:55.489Z,101613.88
2022-12-04T00:14:04.555Z,101617.75
2022-12-04T00:17:09.102Z,101596.50
2022-12-04T00:20:11.801Z,101614.19
2022-12-04T00:23:14.206Z,101613.47
2022-12-04T00:26:19.483Z,101611.50
2022-12-04T00:29:21.841Z,101609.34
2022-12-04T00:32:24.862Z,101587.22
2022-12-04T00:35:27.126Z,101609.19
2022-12-04T00:38:29.646Z,101608.81
2022-12-04T00:41:33.514Z,101611.78
2022-12-04T00:44:35.893Z,101607.59
2022-12-04T00:47:38.310Z,101600.28
2022-12-04T00:50:40.838Z,101602.31
2022-12-04T00:53:43.570Z,101605.22
2022-12-04T00:56:46.004Z,101599.69
2022-12-04T00:59:48.649Z,101608.34
2022-12-04T01:02:51.250Z,101606.91
2022-12-04T01:05:53.725Z,101602.69
2022-12-04T01:08:57.498Z,101594.44
2022-12-04T01:11:59.723Z,101607.16
2022-12-04T01:15:02.040Z,101602.19
2022-12-04T01:18:04.491Z,101584.50
2022-12-04T01:21:06.971Z,101569.50
2022-12-04T01:24:09.498Z,101585.75
2022-12-04T01:27:11.956Z,101584.66
2022-12-04T01:30:14.655Z,101584.75
2022-12-04T01:33:16.957Z,101589.50
2022-12-04T01:36:21.967Z,101575.75
2022-12-04T01:39:24.470Z,101599.84
2022-12-04T01:42:27.625Z,101585.38
2022-12-04T01:45:45.189Z,101584.34
2022-12-04T01:48:53.231Z,101601.69
2022-12-04T01:52:06.327Z,101592.56
2022-12-04T01:55:08.986Z,101589.69
2022-12-04T01:58:11.896Z,101592.44
2022-12-04T02:01:14.347Z,101590.44
2022-12-04T02:04:16.838Z,101603.00
2022-12-04T02:07:19.326Z,101585.66
2022-12-04T02:10:24.770Z,101591.25
2022-12-04T02:13:33.948Z,101585.28
2022-12-04T02:17:01.090Z,101582.41
2022-12-04T02:20:36.296Z,101591.03
2022-12-04T02:23:50.706Z,101603.31
2022-12-04T02:27:17.705Z,101613.84
2022-12-04T02:30:20.119Z,101609.63
2022-12-04T02:33:26.196Z,101594.19
2022-12-04T02:36:32.325Z,101589.91
2022-12-04T02:39:57.046Z,101595.66
2022-12-04T02:43:11.431Z,101589.88
2022-12-04T02:46:16.602Z,101581.19
2022-12-04T02:49:23.420Z,101579.09
2022-12-04T02:52:36.246Z,101581.28
2022-12-04T02:55:43.285Z,101566.25
2022-12-04T02:58:49.753Z,101563.25
2022-12-04T03:01:55.043Z,101565.84
2022-12-04T03:04:58.896Z,101556.81
2022-12-04T03:08:17.230Z,101566.59
2022-12-04T03:11:19.815Z,101562.91
2022-12-04T03:14:29.853Z,101550.13
2022-12-04T03:17:42.699Z,101555.31
2022-12-04T03:20:47.569Z,101547.22
2022-12-04T03:24:03.783Z,101536.53
2022-12-04T03:27:27.437Z,101543.41
2022-12-04T03:30:36.275Z,101541.03
2022-12-04T03:33:43.515Z,101546.09
2022-12-04T03:36:57.370Z,101539.84
2022-12-04T03:40:05.626Z,101552.06
2022-12-04T03:43:23.425Z,101531.38
2022-12-04T03:47:01.218Z,101524.88
2022-12-04T03:50:12.339Z,101530.63
2022-12-04T03:53:23.343Z,101539.22
2022-12-04T03:56:28.879Z,101531.50
2022-12-04T03:59:37.735Z,101526.09
2022-12-04T04:02:50.266Z,101530.84
2022-12-04T04:05:57.130Z,101519.44
2022-12-04T04:09:02.994Z,101520.13
2022-12-04T04:12:09.530Z,101530.19
2022-12-04T04:15:35.332Z,101531.53
2022-12-04T04:18:57.853Z,101529.56
2022-12-04T04:22:19.646Z,101526.53
2022-12-04T04:25:24.468Z,101532.25
2022-12-04T04:28:31.162Z,101521.63
2022-12-04T04:31:39.401Z,101542.81
2022-12-04T04:34:51.763Z,101532.94
2022-12-04T04:38:15.567Z,101532.00
2022-12-04T04:41:39.398Z,101534.22
2022-12-04T04:45:08.475Z,101534.94
2022-12-04T04:48:33.630Z,101522.19
2022-12-04T04:51:36.179Z,101526.91
2022-12-04T04:54:39.623Z,101515.59
2022-12-04T04:57:41.954Z,101521.97
2022-12-04T05:01:05.457Z,101525.06
2022-12-04T05:04:08.215Z,101526.19
2022-12-04T05:07:10.613Z,101536.16
2022-12-04T05:10:14.202Z,101543.09
2022-12-04T05:13:17.969Z,101551.66
2022-12-04T05:16:20.511Z,101545.41
2022-12-04T05:19:41.887Z,101546.16
2022-12-04T05:22:44.146Z,101550.19
2022-12-04T05:25:46.534Z,101540.31
2022-12-04T05:28:48.910Z,101528.94
2022-12-04T05:31:51.443Z,101530.97
2022-12-04T05:34:55.204Z,101525.00
2022-12-04T05:37:57.511Z,101514.25
2022-12-04T05:41:00.570Z,101512.59
2022-12-04T05:44:02.932Z,101518.28
2022-12-04T05:47:06.017Z,101524.88
2022-12-04T05:50:09.987Z,101534.94
2022-12-04T05:53:12.485Z,101549.81
2022-12-04T05:56:14.973Z,101548.78
2022-12-04T05:59:17.379Z,101561.38
2022-12-04T06:02:19.875Z,101562.25
2022-12-04T06:05:22.388Z,101569.94
2022-12-04T06:08:24.640Z,101568.28
2022-12-04T06:11:34.364Z,101560.94
2022-12-04T06:14:39.789Z,101563.22
2022-12-04T06:17:42.726Z,101567.78
2022-12-04T06:20:45.149Z,101563.00
2022-12-04T06:23:47.867Z,101563.59
2022-12-04T06:27:25.673Z,101565.03
2022-12-04T06:30:13.391Z,101557.34
2022-12-04T06:33:15.754Z,101553.81
2022-12-04T06:36:21.298Z,101560.50
2022-12-04T06:39:24.082Z,101549.66
2022-12-04T06:42:26.671Z,101565.47
2022-12-04T06:45:28.983Z,101565.78
2022-12-04T06:48:32.029Z,101565.88
2022-12-04T06:51:36.917Z,101565.69
2022-12-04T06:54:39.321Z,101575.09
2022-12-04T06:57:41.621Z,101576.59
2022-12-04T07:00:43.982Z,101555.19
2022-12-04T07:03:51.323Z,101561.53
2022-12-04T07:06:54.764Z,101560.84
2022-12-04T07:09:57.302Z,101556.97
2022-12-04T07:12:59.745Z,101556.53
2022-12-04T07:16:03.813Z,101560.41
2022-12-04T07:19:06.193Z,101556.31
2022-12-04T07:22:09.113Z,101551.38
2022-12-04T07:25:11.655Z,101558.09
2022-12-04T07:28:14.327Z,101557.56
2022-12-04T07:31:19.411Z,101556.00
2022-12-04T07:34:21.684Z,101548.09
2022-12-04T07:37:24.363Z,101543.09
2022-12-04T07:40:26.650Z,101527.06
2022-12-04T07:43:30.275Z,101532.16
2022-12-04T07:46:32.974Z,101549.50
2022-12-04T07:49:35.398Z,101542.44
2022-12-04T07:52:40.994Z,101535.06
2022-12-04T07:55:43.386Z,101550.22
2022-12-04T07:58:46.784Z,101542.34
2022-12-04T08:01:49.174Z,101544.56
2022-12-04T08:04:51.645Z,101545.19
2022-12-04T08:07:54.529Z,101545.09
2022-12-04T08:10:59.888Z,101533.75
2022-12-04T08:14:04.086Z,101533.41
2022-12-04T08:17:06.768Z,101545.69
2022-12-04T08:20:09.393Z,101555.63
2022-12-04T08:23:11.722Z,101555.78
2022-12-04T08:26:14.775Z,101550.69
2022-12-04T08:29:17.097Z,101554.09
2022-12-04T08:32:19.422Z,101563.38
2022-12-04T08:35:21.753Z,101561.44
2022-12-04T08:38:24.174Z,101555.53
2022-12-04T08:41:27.621Z,101556.50
2022-12-04T08:44:29.966Z,101559.78
2022-12-04T08:47:32.316Z,101549.28
2022-12-04T08:50:34.606Z,101547.53
2022-12-04T08:53:37.107Z,101549.50
2022-12-04T08:56:39.425Z,101540.91
2022-12-04T08:59:42.173Z,101541.53
2022-12-04T09:02:44.602Z,101544.91
2022-12-04T09:05:47.225Z,101550.75
2022-12-04T09:08:53.630Z,101549.03
2022-12-04T09:11:56.310Z,101555.16
2022-12-04T09:14:58.652Z,101566.31
2022-12-04T09:18:01.066Z,101562.13
2022-12-04T09:21:06.360Z,101562.75
2022-12-04T09:24:08.721Z,101545.81
2022-12-04T09:27:14.738Z,101544.34
2022-12-04T09:30:17.724Z,101535.06
2022-12-04T09:33:20.132Z,101538.22
2022-12-04T09:36:22.859Z,101521.63
2022-12-04T09:39:25.154Z,101528.03
2022-12-04T09:42:46.755Z,101531.38
2022-12-04T09:45:52.730Z,101531.81
2022-12-04T09:48:57.574Z,101547.09
2022-12-04T09:52:03.450Z,101536.09
2022-12-04T09:55:07.257Z,101528.88
2022-12-04T09:58:15.254Z,101526.63
2022-12-04T10:01:27.021Z,101531.81
2022-12-04T10:04:29.373Z,101528.88
2022-12-04T10:07:48.687Z,101526.19
2022-12-04T10:11:13.355Z,101535.91
2022-12-04T10:14:37.146Z,101530.78
2022-12-04T10:18:11.891Z,101528.28
2022-12-04T10:21:19.647Z,101536.75
2022-12-04T10:24:31.079Z,101531.00
2022-12-04T10:27:38.975Z,101517.53
2022-12-04T10:30:42.405Z,101522.47
2022-12-04T10:33:54.510Z,101523.59
2022-12-04T10:37:09.596Z,101537.28
2022-12-04T10:40:22.483Z,101529.25
2022-12-04T10:43:37.497Z,101515.88
2022-12-04T10:46:45.539Z,101530.28
2022-12-04T10:49:48.961Z,101525.31
2022-12-04T10:52:51.827Z,101522.19
2022-12-04T10:55:54.183Z,101492.25
2022-12-04T10:59:05.393Z,101506.41
2022-12-04T11:02:28.800Z,101499.81
2022-12-04T11:05:41.610Z,101511.53
2022-12-04T11:08:49.560Z,101514.50
2022-12-04T11:11:53.050Z,101504.53
2022-12-04T11:15:15.303Z,101513.81
2022-12-04T11:18:18.618Z,101506.13
2022-12-04T11:21:28.738Z,101505.81
2022-12-04T11:24:36.633Z,101506.78
2022-12-04T11:27:38.964Z,101496.03
2022-12-04T11:30:41.391Z,101512.38
2022-12-04T11:33:46.549Z,101494.56
2022-12-04T11:36:57.005Z,101503.25
2022-12-04T11:39:59.499Z,101501.03
2022-12-04T11:43:12.459Z,101480.84
2022-12-04T11:46:23.844Z,101501.97
2022-12-04T11:49:27.525Z,101494.44
2022-12-04T11:52:32.831Z,101501.47
2022-12-04T11:55:56.463Z,101498.63
2022-12-04T11:59:04.312Z,101495.28
2022-12-04T12:02:12.607Z,101489.41
2022-12-04T12:05:43.000Z,101495.81
2022-12-04T12:09:07.824Z,101497.84
2022-12-04T12:12:18.615Z,101496.09
2022-12-04T12:15:26.477Z,101503.72
2022-12-04T12:18:28.694Z,101508.00
2022-12-04T12:21:43.230Z,101492.59
2022-12-04T12:25:12.846Z,101501.59
2022-12-04T12:28:35.334Z,101497.69
2022-12-04T12:32:00.138Z,101504.66
2022-12-04T12:35:03.588Z,101498.28
2022-12-04T12:38:30.647Z,101499.28
2022-12-04T12:41:46.796Z,101495.94
2022-12-04T12:45:18.294Z,101498.03
2022-12-04T12:48:26.881Z,101496.97
2022-12-04T12:51:39.710Z,101508.00
2022-12-04T12:54:47.146Z,101505.38
2022-12-04T12:58:01.572Z,101504.91
2022-12-04T13:01:13.939Z,101494.19
2022-12-04T13:04:24.124Z,101475.31
2022-12-04T13:08:21.796Z,101498.81
2022-12-04T13:11:26.110Z,101506.53
2022-12-04T13:14:28.561Z,101499.66
2022-12-04T13:17:34.797Z,101498.06
2022-12-04T13:20:46.715Z,101480.75
2022-12-04T13:23:49.114Z,101487.16
2022-12-04T13:26:58.452Z,101484.75
2022-12-04T13:30:10.007Z,101486.06
2022-12-04T13:33:29.278Z,101486.88
2022-12-04T13:36:31.723Z,101493.16
2022-12-04T13:39:39.743Z,101480.38
2022-12-04T13:42:42.490Z,101484.19
2022-12-04T13:45:49.169Z,101486.13
2022-12-04T13:48:51.575Z,101476.13
2022-12-04T13:51:56.610Z,101483.00
2022-12-04T13:55:00.475Z,101488.25
2022-12-04T13:58:04.259Z,101480.13
2022-12-04T14:01:25.275Z,101478.06
2022-12-04T14:04:38.856Z,101480.13
2022-12-04T14:07:44.255Z,101483.25
2022-12-04T14:11:19.102Z,101490.59
2022-12-04T14:14:26.777Z,101496.44
2022-12-04T14:17:34.518Z,101494.09
2022-12-04T14:20:37.159Z,101499.56
2022-12-04T14:23:41.678Z,101490.22
2022-12-04T14:30:13.620Z,101500.06
2022-12-04T14:33:22.493Z,101505.69
2022-12-04T14:36:31.677Z,101502.38
2022-12-04T14:39:38.164Z,101513.28
2022-12-04T14:42:41.078Z,101510.69
2022-12-04T14:45:47.578Z,101500.72
2022-12-04T14:49:21.565Z,101506.81
2022-12-04T14:52:42.626Z,101497.09
2022-12-04T14:56:07.981Z,101507.00
2022-12-04T14:59:18.548Z,101509.19
2022-12-04T15:02:23.482Z,101497.47
2022-12-04T15:05:30.806Z,101488.81
2022-12-04T15:08:34.091Z,101489.72
2022-12-04T15:12:04.688Z,101485.00
2022-12-04T15:15:25.193Z,101482.88
2022-12-04T15:18:27.670Z,101484.81
2022-12-04T15:21:40.890Z,101482.13
2022-12-04T15:24:43.240Z,101474.72
2022-12-04T15:27:46.807Z,101480.09
2022-12-04T15:30:50.826Z,101487.16
2022-12-04T15:33:53.601Z,101484.19
2022-12-04T15:37:06.360Z,101476.56
2022-12-04T15:40:12.031Z,101465.00
2022-12-04T15:43:17.154Z,101453.88
2022-12-04T15:46:24.553Z,101465.53
2022-12-04T15:49:33.592Z,101455.22
2022-12-04T15:52:37.094Z,101470.09
2022-12-04T15:56:03.941Z,101465.28
2022-12-04T15:59:06.216Z,101464.03
2022-12-04T16:02:23.901Z,101455.38
2022-12-04T16:05:32.943Z,101469.78
2022-12-04T16:08:39.629Z,101464.53
2022-12-04T16:11:43.009Z,101452.13
2022-12-04T16:14:45.278Z,101466.09
2022-12-04T16:17:47.591Z,101459.69
2022-12-04T16:20:49.928Z,101456.19
2022-12-04T16:23:52.227Z,101458.25
2022-12-04T16:26:56.041Z,101469.94
2022-12-04T16:29:58.530Z,101464.75
2022-12-04T16:33:00.891Z,101470.66
2022-12-04T16:36:03.289Z,101471.56
2022-12-04T16:39:05.748Z,101480.59
2022-12-04T16:42:18.355Z,101460.00
2022-12-04T16:45:28.343Z,101460.75
2022-12-04T16:48:34.714Z,101452.59
2022-12-04T16:51:37.689Z,101450.91
2022-12-04T16:54:40.522Z,101446.75
2022-12-04T16:57:42.908Z,101447.22
2022-12-04T17:00:50.092Z,101460.09
2022-12-04T17:03:53.274Z,101467.50
2022-12-04T17:06:55.897Z,101469.97
2022-12-04T17:09:58.253Z,101477.41
2022-12-04T17:13:00.542Z,101478.25
2022-12-04T17:16:02.947Z,101476.03
2022-12-04T17:19:05.568Z,101464.34
2022-12-04T17:22:08.135Z,101459.00
2022-12-04T17:25:11.252Z,101456.31
2022-12-04T17:28:13.883Z,101456.22
2022-12-04T17:31:21.630Z,101466.03
2022-12-04T17:34:24.177Z,101464.47
2022-12-04T17:37:26.486Z,101492.34
2022-12-04T17:40:28.878Z,101477.41
2022-12-04T17:43:32.677Z,101484.28
2022-12-04T17:46:35.044Z,101480.31
2022-12-04T17:49:37.435Z,101484.53
2022-12-04T17:52:39.931Z,101483.16
2022-12-04T17:55:42.328Z,101483.91
2022-12-04T17:58:45.278Z,101482.59
2022-12-04T18:01:50.312Z,101491.56
2022-12-04T18:04:55.345Z,101482.63
2022-12-04T18:07:58.253Z,101495.25
2022-12-04T18:11:04.626Z,101492.41
2022-12-04T18:14:12.311Z,101496.56
2022-12-04T18:17:17.673Z,101515.56
2022-12-04T18:20:19.936Z,101507.25
2022-12-04T18:23:22.194Z,101503.91
2022-12-04T18:26:27.139Z,101502.53
2022-12-04T18:29:29.439Z,101509.28
2022-12-04T18:32:31.746Z,101505.88
2022-12-04T18:35:34.099Z,101520.81
2022-12-04T18:38:36.820Z,101516.44
2022-12-04T18:41:39.095Z,101522.34
2022-12-04T18:44:41.498Z,101519.06
2022-12-04T18:47:43.863Z,101520.81
2022-12-04T18:50:46.416Z,101525.88
2022-12-04T18:54:00.416Z,101534.91
2022-12-04T18:57:04.247Z,101539.25
2022-12-04T19:00:07.456Z,101517.81
2022-12-04T19:03:10.323Z,101542.97
2022-12-04T19:06:13.522Z,101545.81
2022-12-04T19:09:18.870Z,101538.13
2022-12-04T19:12:21.204Z,101536.72
2022-12-04T19:15:23.767Z,101542.09
2022-12-04T19:18:26.225Z,101541.88
2022-12-04T19:21:28.634Z,101548.16
2022-12-04T19:24:30.926Z,101554.59
2022-12-04T19:27:33.681Z,101564.03
2022-12-04T19:30:36.239Z,101563.16
2022-12-04T19:33:38.518Z,101565.19
2022-12-04T19:36:41.440Z,101557.41
2022-12-04T19:39:44.011Z,101558.06
2022-12-04T19:42:46.494Z,101547.38
2022-12-04T19:45:49.681Z,101548.84
2022-12-04T19:48:54.572Z,101551.72
2022-12-04T19:51:56.895Z,101552.09
2022-12-04T19:54:59.323Z,101555.50
2022-12-04T19:58:02.521Z,101535.84
2022-12-04T20:01:06.923Z,101546.63
2022-12-04T20:04:09.966Z,101545.09
2022-12-04T20:07:12.620Z,101538.19
2022-12-04T20:10:14.960Z,101537.34
2022-12-04T20:13:17.398Z,101544.56
2022-12-04T20:16:20.051Z,101536.44
2022-12-04T20:19:22.599Z,101530.59
2022-12-04T20:22:25.013Z,101537.81
2022-12-04T20:25:27.472Z,101534.50
2022-12-04T20:28:29.877Z,101544.56
2022-12-04T20:31:34.595Z,101536.81
2022-12-04T20:34:43.089Z,101532.88
2022-12-04T20:37:45.947Z,101523.38
2022-12-04T20:40:48.390Z,101527.63
2022-12-04T20:43:51.001Z,101523.38
2022-12-04T20:46:53.602Z,101509.03
2022-12-04T20:49:56.657Z,101524.53
2022-12-04T20:52:59.246Z,101530.63
2022-12-04T20:56:01.585Z,101523.16
2022-12-04T20:59:06.585Z,101523.72
2022-12-04T21:02:09.101Z,101515.44
2022-12-04T21:05:11.469Z,101520.88
2022-12-04T21:08:13.872Z,101511.75
2022-12-04T21:11:16.288Z,101510.00
2022-12-04T21:14:42.923Z,101517.97
2022-12-04T21:17:45.280Z,101497.75
2022-12-04T21:20:47.547Z,101513.00
2022-12-04T21:23:49.911Z,101516.31
2022-12-04T21:26:52.315Z,101524.00
2022-12-04T21:29:56.151Z,101530.56
2022-12-04T21:32:58.825Z,101532.94
2022-12-04T21:36:09.287Z,101538.34
2022-12-04T21:39:11.549Z,101540.66
2022-12-04T21:42:33.019Z,101531.09
2022-12-04T21:45:35.367Z,101537.03
2022-12-04T21:48:37.718Z,101535.84
2022-12-04T21:51:56.914Z,101544.78
2022-12-04T21:55:00.290Z,101529.34
2022-12-04T21:58:02.622Z,101541.81
2022-12-04T22:01:12.317Z,101529.78
2022-12-04T22:04:14.892Z,101538.59
2022-12-04T22:07:17.422Z,101534.94
2022-12-04T22:10:19.743Z,101518.66
2022-12-04T22:13:22.061Z,101516.31
2022-12-04T22:16:30.332Z,101524.94
2022-12-04T22:19:34.164Z,101531.88
2022-12-04T22:22:36.475Z,101535.97
2022-12-04T22:25:38.794Z,101528.56
2022-12-04T22:28:42.035Z,101520.25
2022-12-04T22:31:44.386Z,101526.03
2022-12-04T22:34:51.329Z,101532.78
2022-12-04T22:37:53.752Z,101531.47
2022-12-04T22:40:59.864Z,101523.19
2022-12-04T22:44:02.223Z,101522.56
2022-12-04T22:47:04.766Z,101518.28
2022-12-04T22:50:08.033Z,101494.94
2022-12-04T22:53:10.313Z,101504.13
2022-12-04T22:56:15.993Z,101519.00
2022-12-04T22:59:18.358Z,101516.59
2022-12-04T23:02:20.753Z,101504.31
2022-12-04T23:05:23.155Z,101501.88
2022-12-04T23:08:25.627Z,101494.84
2022-12-04T23:11:28.755Z,101488.78
2022-12-04T23:14:32.649Z,101494.00
2022-12-04T23:17:34.923Z,101488.69
2022-12-04T23:20:37.233Z,101492.53
2022-12-04T23:23:40.976Z,101486.03
2022-12-04T23:26:46.484Z,101505.88
2022-12-04T23:29:53.505Z,101491.50
2022-12-04T23:32:56.261Z,101481.78
2022-12-04T23:36:00.815Z,101475.69
2022-12-04T23:39:03.224Z,101476.78
2022-12-04T23:42:05.484Z,101476.13
2022-12-04T23:45:08.483Z,101467.44
2022-12-04T23:48:11.110Z,101474.84
2022-12-04T23:51:18.675Z,101470.00
2022-12-04T23:54:21.029Z,101470.97
2022-12-04T23:57:23.440Z,101457.13
